createdAt,value
2019-02-12T00:01:02.203Z,6.02
2019-02-12T00:03:49.831Z,6.15
2019-02-12T00:06:37.459Z,6.26
2019-02-12T00:09:24.881Z,6.22
2019-02-12T00:12:11.992Z,6.20
2019-02-12T00:14:59.233Z,6.31
2019-02-12T00:17:46.136Z,6.26
2019-02-12T00:20:34.844Z,6.27
2019-02-12T00:23:22.210Z,6.29
2019-02-12T00:26:09.531Z,6.20
2019-02-12T00:28:56.650Z,6.15
2019-02-12T00:31:44.173Z,6.31
2019-02-12T00:34:32.115Z,6.29
2019-02-12T00:37:19.536Z,6.15
2019-02-12T00:40:09.317Z,5.97
2019-02-12T00:42:56.637Z,6.03
2019-02-12T00:45:43.958Z,6.08
2019-02-12T00:48:31.278Z,6.13
2019-02-12T00:51:18.496Z,6.21
2019-02-12T00:54:06.439Z,6.15
2019-02-12T00:56:53.652Z,6.07
2019-02-12T00:59:41.488Z,6.12
2019-02-12T01:02:28.908Z,6.11
2019-02-12T01:05:16.478Z,5.95
2019-02-12T01:08:03.966Z,6.07
2019-02-12T01:10:51.392Z,5.95
2019-02-12T01:13:38.917Z,5.91
2019-02-12T01:16:26.541Z,5.91
2019-02-12T01:19:13.864Z,5.94
2019-02-12T01:22:01.394Z,5.35
2019-02-12T01:24:49.021Z,5.52
2019-02-12T01:27:36.137Z,5.73
2019-02-12T01:30:23.968Z,5.63
2019-02-12T01:33:11.600Z,5.69
2019-02-12T01:35:59.229Z,5.85
2019-02-12T01:38:46.554Z,5.84
2019-02-12T01:41:33.973Z,5.92
2019-02-12T01:44:21.094Z,6.03
2019-02-12T01:47:08.616Z,6.07
2019-02-12T01:49:55.733Z,6.15
2019-02-12T01:52:43.687Z,6.11
2019-02-12T01:55:31.400Z,6.08
2019-02-12T01:58:18.826Z,6.17
2019-02-12T02:01:06.556Z,6.21
2019-02-12T02:03:54.235Z,6.22
2019-02-12T02:06:42.019Z,5.97
2019-02-12T02:09:29.543Z,6.08
2019-02-12T02:12:17.172Z,6.16
2019-02-12T02:15:05.624Z,6.20
2019-02-12T02:17:52.941Z,6.13
2019-02-12T02:20:40.482Z,6.10
2019-02-12T02:23:27.901Z,6.09
2019-02-12T02:26:15.421Z,5.98
2019-02-12T02:29:03.058Z,5.88
2019-02-12T02:31:50.360Z,5.64
2019-02-12T02:34:37.793Z,5.76
2019-02-12T02:37:25.582Z,5.95
2019-02-12T02:40:13.089Z,5.92
2019-02-12T02:43:00.781Z,6.03
2019-02-12T02:45:48.514Z,6.03
2019-02-12T02:48:35.679Z,5.98
2019-02-12T02:51:22.854Z,5.65
2019-02-12T02:54:10.483Z,5.80
2019-02-12T02:56:58.210Z,5.75
2019-02-12T02:59:45.825Z,5.92
2019-02-12T03:02:33.160Z,5.90
2019-02-12T03:05:20.903Z,5.96
2019-02-12T03:08:08.521Z,5.96
2019-02-12T03:10:55.637Z,6.09
2019-02-12T03:13:42.861Z,6.01
2019-02-12T03:16:30.589Z,5.98
2019-02-12T03:19:17.603Z,6.10
2019-02-12T03:22:05.139Z,6.17
2019-02-12T03:24:52.761Z,6.11
2019-02-12T03:27:40.285Z,6.06
2019-02-12T03:30:27.919Z,6.13
2019-02-12T03:33:15.340Z,6.19
2019-02-12T03:36:02.884Z,6.09
2019-02-12T03:38:50.185Z,6.06
2019-02-12T03:41:37.711Z,6.14
2019-02-12T03:44:25.237Z,6.09
2019-02-12T03:47:13.377Z,5.98
2019-02-12T03:50:01.138Z,5.96
2019-02-12T03:52:48.945Z,6.06
2019-02-12T03:55:36.672Z,6.07
2019-02-12T03:58:24.641Z,5.97
2019-02-12T04:01:12.038Z,6.00
2019-02-12T04:03:59.884Z,6.07
2019-02-12T04:06:47.400Z,6.12
2019-02-12T04:09:35.023Z,6.20
2019-02-12T04:12:23.267Z,6.29
2019-02-12T04:15:10.996Z,6.26
2019-02-12T04:17:58.530Z,6.27
2019-02-12T04:20:45.652Z,6.27
2019-02-12T04:23:32.757Z,6.24
2019-02-12T04:26:20.182Z,6.24
2019-02-12T04:29:07.710Z,6.29
2019-02-12T04:31:55.438Z,6.33
2019-02-12T04:34:42.760Z,6.26
2019-02-12T04:37:30.188Z,6.25
2019-02-12T04:40:17.507Z,6.26
2019-02-12T04:43:05.146Z,6.23
2019-02-12T04:45:52.356Z,6.17
2019-02-12T04:48:40.034Z,6.13
2019-02-12T04:51:27.676Z,6.16
2019-02-12T04:54:15.142Z,6.19
2019-02-12T04:57:02.884Z,6.27
2019-02-12T04:59:50.419Z,6.13
2019-02-12T05:02:38.233Z,6.05
2019-02-12T05:05:25.961Z,6.00
2019-02-12T05:08:13.489Z,6.09
2019-02-12T05:11:05.737Z,6.11
2019-02-12T05:13:53.152Z,6.18
2019-02-12T05:16:40.587Z,6.11
2019-02-12T05:19:28.416Z,6.17
2019-02-12T05:22:16.138Z,6.07
2019-02-12T05:25:03.665Z,6.09
2019-02-12T05:27:50.985Z,6.14
2019-02-12T05:30:38.584Z,6.15
2019-02-12T05:33:25.829Z,6.03
2019-02-12T05:36:12.947Z,5.80
2019-02-12T05:39:00.478Z,5.76
2019-02-12T05:41:48.104Z,5.77
2019-02-12T05:44:35.732Z,5.78
2019-02-12T05:47:23.361Z,5.92
2019-02-12T05:50:14.872Z,5.83
2019-02-12T05:53:02.311Z,5.83
2019-02-12T05:55:50.138Z,5.85
2019-02-12T05:58:37.466Z,5.99
2019-02-12T06:01:24.681Z,6.08
2019-02-12T06:04:12.414Z,5.79
2019-02-12T06:06:59.838Z,6.00
2019-02-12T06:09:46.958Z,6.05
2019-02-12T06:12:35.502Z,6.13
2019-02-12T06:15:23.146Z,6.04
2019-02-12T06:18:10.658Z,6.03
2019-02-12T06:20:58.393Z,6.09
2019-02-12T06:23:46.021Z,6.10
2019-02-12T06:26:36.078Z,6.17
2019-02-12T06:29:22.967Z,6.19
2019-02-12T06:32:10.543Z,6.21
2019-02-12T06:34:57.877Z,6.13
2019-02-12T06:37:45.700Z,6.24
2019-02-12T06:40:33.225Z,6.23
2019-02-12T06:43:20.655Z,6.18
2019-02-12T06:46:08.484Z,5.97
2019-02-12T06:48:56.932Z,5.99
2019-02-12T06:51:44.456Z,5.68
2019-02-12T06:54:31.886Z,5.88
2019-02-12T06:57:19.200Z,5.85
2019-02-12T07:00:14.632Z,5.70
2019-02-12T07:03:19.477Z,5.76
2019-02-12T07:06:09.740Z,5.87
2019-02-12T07:09:00.128Z,5.80
2019-02-12T07:12:02.406Z,5.91
2019-02-12T07:14:59.042Z,5.96
2019-02-12T07:17:58.771Z,5.88
2019-02-12T07:21:05.942Z,6.04
2019-02-12T07:24:02.788Z,6.02
2019-02-12T07:27:08.240Z,6.02
2019-02-12T07:30:13.679Z,6.13
2019-02-12T07:33:19.536Z,6.05
2019-02-12T07:36:34.607Z,5.97
2019-02-12T07:39:37.597Z,5.82
2019-02-12T07:42:46.729Z,5.96
2019-02-12T07:45:46.235Z,5.95
2019-02-12T07:48:36.732Z,5.96
2019-02-12T07:51:42.384Z,6.01
2019-02-12T07:54:32.884Z,5.91
2019-02-12T07:57:29.835Z,6.01
2019-02-12T08:00:32.509Z,5.81
2019-02-12T08:03:52.190Z,5.82
2019-02-12T08:07:16.784Z,6.03
2019-02-12T08:10:28.554Z,5.91
2019-02-12T08:13:24.811Z,6.02
2019-02-12T08:16:18.479Z,5.98
2019-02-12T08:19:23.720Z,6.11
2019-02-12T08:22:32.550Z,6.24
2019-02-12T08:25:26.114Z,6.29
2019-02-12T08:28:31.559Z,6.22
2019-02-12T08:31:31.275Z,6.05
2019-02-12T08:34:37.129Z,6.10
2019-02-12T08:37:59.371Z,6.08
2019-02-12T08:40:50.068Z,6.15
2019-02-12T08:43:57.156Z,5.97
2019-02-12T08:47:17.926Z,6.02
2019-02-12T08:50:24.741Z,6.05
2019-02-12T08:53:34.386Z,6.17
2019-02-12T08:56:36.218Z,6.21
2019-02-12T08:59:47.120Z,6.38
2019-02-12T09:03:11.199Z,6.37
2019-02-12T09:06:04.872Z,6.53
2019-02-12T09:09:21.994Z,6.44
2019-02-12T09:12:12.400Z,6.58
2019-02-12T09:15:19.676Z,6.61
2019-02-12T09:18:18.979Z,6.89
2019-02-12T09:21:32.415Z,7.01
2019-02-12T09:24:34.788Z,6.94
2019-02-12T09:27:28.152Z,7.03
2019-02-12T09:30:39.790Z,7.14
2019-02-12T09:33:35.871Z,7.05
2019-02-12T09:36:47.255Z,7.12
2019-02-12T09:39:52.802Z,7.17
2019-02-12T09:42:58.657Z,7.18
2019-02-12T09:46:05.948Z,7.26
2019-02-12T09:49:30.236Z,7.25
2019-02-12T09:52:35.885Z,7.23
2019-02-12T09:55:32.221Z,7.27
2019-02-12T09:58:44.527Z,7.17
2019-02-12T10:01:35.023Z,7.09
2019-02-12T10:04:35.045Z,7.21
2019-02-12T10:07:58.823Z,7.22
2019-02-12T10:11:08.296Z,7.27
2019-02-12T10:14:02.234Z,7.12
2019-02-12T10:16:58.367Z,6.53
2019-02-12T10:19:51.215Z,6.77
2019-02-12T10:22:47.842Z,6.98
2019-02-12T10:25:35.076Z,7.02
2019-02-12T10:28:38.163Z,7.01
2019-02-12T10:31:26.000Z,6.97
2019-02-12T10:34:13.733Z,7.17
2019-02-12T10:37:01.327Z,7.28
2019-02-12T10:39:48.892Z,7.48
2019-02-12T10:42:36.311Z,7.73
2019-02-12T10:45:23.733Z,7.75
2019-02-12T10:48:11.470Z,7.80
2019-02-12T10:50:58.783Z,7.93
2019-02-12T10:53:46.007Z,7.96
2019-02-12T10:56:33.532Z,8.26
2019-02-12T10:59:20.855Z,8.13
2019-02-12T11:02:08.073Z,8.27
2019-02-12T11:04:55.551Z,8.42
2019-02-12T11:07:43.433Z,8.47
2019-02-12T11:10:30.752Z,8.30
2019-02-12T11:13:18.484Z,8.45
2019-02-12T11:16:06.876Z,8.72
2019-02-12T11:18:54.260Z,8.70
2019-02-12T11:21:41.789Z,8.66
2019-02-12T11:24:35.459Z,8.47
2019-02-12T11:27:18.577Z,8.27
2019-02-12T11:30:12.463Z,8.31
2019-02-12T11:33:00.174Z,8.18
2019-02-12T11:35:47.912Z,8.36
2019-02-12T11:38:35.339Z,8.34
2019-02-12T11:41:23.072Z,8.33
2019-02-12T11:44:10.647Z,8.23
2019-02-12T11:46:58.637Z,8.29
2019-02-12T11:49:45.956Z,8.21
2019-02-12T11:52:33.274Z,8.19
2019-02-12T11:55:21.110Z,8.41
2019-02-12T11:58:08.329Z,8.23
2019-02-12T12:00:57.596Z,8.40
2019-02-12T12:03:45.329Z,8.52
2019-02-12T12:06:32.444Z,8.39
2019-02-12T12:09:20.074Z,8.47
2019-02-12T12:12:07.908Z,8.41
2019-02-12T12:14:55.418Z,8.42
2019-02-12T12:17:42.961Z,8.39
2019-02-12T12:20:30.486Z,8.41
2019-02-12T12:23:18.625Z,8.26
2019-02-12T12:26:06.358Z,8.10
2019-02-12T12:28:53.686Z,8.22
2019-02-12T12:31:41.414Z,8.44
2019-02-12T12:34:29.038Z,8.63
2019-02-12T12:37:16.567Z,8.73
2019-02-12T12:40:06.320Z,8.45
2019-02-12T12:42:53.632Z,8.39
2019-02-12T12:45:41.296Z,8.47
2019-02-12T12:48:28.823Z,8.50
2019-02-12T12:51:16.247Z,8.42
2019-02-12T12:54:04.083Z,8.43
2019-02-12T12:56:51.421Z,8.63
2019-02-12T12:59:39.132Z,8.38
2019-02-12T13:02:26.563Z,8.47
2019-02-12T13:05:14.186Z,8.51
2019-02-12T13:08:01.916Z,8.56
2019-02-12T13:10:49.049Z,8.50
2019-02-12T13:13:36.664Z,8.78
2019-02-12T13:16:23.882Z,8.77
2019-02-12T13:19:11.817Z,8.74
2019-02-12T13:21:59.345Z,8.70
2019-02-12T13:24:46.975Z,8.74
2019-02-12T13:27:34.203Z,8.50
2019-02-12T13:30:22.027Z,8.59
2019-02-12T13:33:09.549Z,8.36
2019-02-12T13:35:56.873Z,8.39
2019-02-12T13:38:44.285Z,8.59
2019-02-12T13:41:31.620Z,8.56
2019-02-12T13:44:19.349Z,8.65
2019-02-12T13:47:06.466Z,8.46
2019-02-12T13:49:53.997Z,8.68
2019-02-12T13:52:41.889Z,9.00
2019-02-12T13:55:29.560Z,8.91
2019-02-12T13:58:17.292Z,8.78
2019-02-12T14:01:04.821Z,8.85
2019-02-12T14:03:52.649Z,8.84
2019-02-12T14:06:40.176Z,8.89
2019-02-12T14:09:27.599Z,9.08
2019-02-12T14:12:15.836Z,9.23
2019-02-12T14:15:04.499Z,9.12
2019-02-12T14:17:51.512Z,9.17
2019-02-12T14:20:39.144Z,9.24
2019-02-12T14:23:27.516Z,9.21
2019-02-12T14:26:15.117Z,9.33
2019-02-12T14:29:02.655Z,9.47
2019-02-12T14:31:53.200Z,9.39
2019-02-12T14:34:40.457Z,9.43
2019-02-12T14:37:27.882Z,9.37
2019-02-12T14:40:16.949Z,9.06
2019-02-12T14:43:04.269Z,9.11
2019-02-12T14:45:51.588Z,9.14
2019-02-12T14:48:39.217Z,9.33
2019-02-12T14:51:27.770Z,9.47
2019-02-12T14:54:15.293Z,9.22
2019-02-12T14:57:02.517Z,9.19
2019-02-12T14:59:50.155Z,9.21
2019-02-12T15:02:37.880Z,9.09
2019-02-12T15:05:25.401Z,9.08
2019-02-12T15:08:12.947Z,9.18
2019-02-12T15:11:00.349Z,8.99
2019-02-12T15:13:48.201Z,9.04
2019-02-12T15:16:36.120Z,9.05
2019-02-12T15:19:23.851Z,8.97
2019-02-12T15:22:11.684Z,8.97
2019-02-12T15:24:59.117Z,9.12
2019-02-12T15:27:46.941Z,9.12
2019-02-12T15:30:34.674Z,9.09
2019-02-12T15:33:22.203Z,8.97
2019-02-12T15:36:09.625Z,8.97
2019-02-12T15:38:57.047Z,8.89
2019-02-12T15:41:44.474Z,8.82
2019-02-12T15:44:31.999Z,8.94
2019-02-12T15:47:19.728Z,8.93
2019-02-12T15:50:10.289Z,8.92
2019-02-12T15:52:57.445Z,8.89
2019-02-12T15:55:51.157Z,8.86
2019-02-12T15:58:33.640Z,8.80
2019-02-12T16:01:22.070Z,8.91
2019-02-12T16:04:09.600Z,8.93
2019-02-12T16:06:58.272Z,9.03
2019-02-12T16:09:46.616Z,8.98
2019-02-12T16:12:33.827Z,7.06
2019-02-12T16:15:24.310Z,8.91
2019-02-12T16:18:10.404Z,8.91
2019-02-12T16:20:57.521Z,8.90
2019-02-12T16:23:45.258Z,8.54
2019-02-12T16:26:32.691Z,8.60
2019-02-12T16:29:20.227Z,8.55
2019-02-12T16:32:07.854Z,8.58
2019-02-12T16:34:59.209Z,8.62
2019-02-12T16:37:47.394Z,8.37
2019-02-12T16:40:35.376Z,8.57
2019-02-12T16:43:22.937Z,8.65
2019-02-12T16:46:13.863Z,8.52
2019-02-12T16:49:00.902Z,8.55
2019-02-12T16:51:48.303Z,8.39
2019-02-12T16:54:35.725Z,8.43
2019-02-12T16:57:23.569Z,8.54
2019-02-12T17:00:13.683Z,8.60
2019-02-12T17:03:01.480Z,8.56
2019-02-12T17:05:48.908Z,8.58
2019-02-12T17:08:36.643Z,8.58
2019-02-12T17:11:25.387Z,8.58
2019-02-12T17:14:13.324Z,8.57
2019-02-12T17:17:01.066Z,8.51
2019-02-12T17:19:48.705Z,8.47
2019-02-12T17:22:36.013Z,8.39
2019-02-12T17:25:25.377Z,8.38
2019-02-12T17:28:13.210Z,8.35
2019-02-12T17:31:00.738Z,8.34
2019-02-12T17:33:48.276Z,8.35
2019-02-12T17:36:38.860Z,8.33
2019-02-12T17:39:27.416Z,8.39
2019-02-12T17:42:14.632Z,8.39
2019-02-12T17:45:01.955Z,8.39
2019-02-12T17:47:49.889Z,8.42
2019-02-12T17:50:37.314Z,8.41
2019-02-12T17:53:25.770Z,8.41
2019-02-12T17:56:13.598Z,8.37
2019-02-12T17:59:00.915Z,8.36
2019-02-12T18:01:48.654Z,8.30
2019-02-12T18:04:36.179Z,8.32
2019-02-12T18:07:23.701Z,8.28
2019-02-12T18:10:12.359Z,8.15
2019-02-12T18:13:00.087Z,8.10
2019-02-12T18:15:47.546Z,8.02
2019-02-12T18:18:35.241Z,7.81
2019-02-12T18:21:23.281Z,7.99
2019-02-12T18:24:11.220Z,8.09
2019-02-12T18:26:59.050Z,8.07
2019-02-12T18:29:46.472Z,8.10
2019-02-12T18:32:34.000Z,8.08
2019-02-12T18:35:22.038Z,7.56
2019-02-12T18:38:09.669Z,7.56
2019-02-12T18:40:56.995Z,7.82
2019-02-12T18:43:44.514Z,6.96
2019-02-12T18:46:32.555Z,7.02
2019-02-12T18:49:19.979Z,7.09
2019-02-12T18:52:07.401Z,7.23
2019-02-12T18:54:55.342Z,6.78
2019-02-12T18:57:42.970Z,6.54
2019-02-12T19:00:30.807Z,6.38
2019-02-12T19:03:18.224Z,6.62
2019-02-12T19:06:05.962Z,6.49
2019-02-12T19:08:52.973Z,6.49
2019-02-12T19:11:52.660Z,6.61
2019-02-12T19:14:29.646Z,6.69
2019-02-12T19:17:17.099Z,6.45
2019-02-12T19:20:06.559Z,6.80
2019-02-12T19:22:54.395Z,7.01
2019-02-12T19:25:43.152Z,6.92
2019-02-12T19:28:30.571Z,6.79
2019-02-12T19:31:17.565Z,6.50
2019-02-12T19:34:05.522Z,6.63
2019-02-12T19:36:53.592Z,6.67
2019-02-12T19:39:41.303Z,6.46
2019-02-12T19:42:29.537Z,6.59
2019-02-12T19:45:18.285Z,6.32
2019-02-12T19:48:06.130Z,6.42
2019-02-12T19:50:59.592Z,5.58
2019-02-12T19:53:47.640Z,6.69
2019-02-12T19:56:35.566Z,6.74
2019-02-12T19:59:22.986Z,6.86
2019-02-12T20:02:10.616Z,6.48
2019-02-12T20:04:58.043Z,6.83
2019-02-12T20:07:45.603Z,7.09
2019-02-12T20:10:33.402Z,6.73
2019-02-12T20:13:20.824Z,6.59
2019-02-12T20:16:08.556Z,6.58
2019-02-12T20:18:56.160Z,6.62
2019-02-12T20:21:43.607Z,6.28
2019-02-12T20:24:31.240Z,6.69
2019-02-12T20:27:18.461Z,6.73
2019-02-12T20:30:09.247Z,6.77
2019-02-12T20:32:56.993Z,7.00
2019-02-12T20:35:44.520Z,7.22
2019-02-12T20:38:32.367Z,7.25
2019-02-12T20:41:19.775Z,7.16
2019-02-12T20:44:08.740Z,7.27
2019-02-12T20:46:56.468Z,7.29
2019-02-12T20:49:44.410Z,7.36
2019-02-12T20:52:32.237Z,7.23
2019-02-12T20:55:20.026Z,7.03
2019-02-12T20:58:07.805Z,6.90
2019-02-12T21:00:55.335Z,6.49
2019-02-12T21:03:42.751Z,6.59
2019-02-12T21:06:29.785Z,6.56
2019-02-12T21:09:17.400Z,6.76
2019-02-12T21:12:05.230Z,6.85
2019-02-12T21:14:53.071Z,6.70
2019-02-12T21:17:40.899Z,6.63
2019-02-12T21:20:29.856Z,6.79
2019-02-12T21:23:17.386Z,6.77
2019-02-12T21:26:05.231Z,6.85
2019-02-12T21:28:53.357Z,6.70
2019-02-12T21:31:40.786Z,6.72
2019-02-12T21:34:28.307Z,5.99
2019-02-12T21:37:15.732Z,6.42
2019-02-12T21:40:03.463Z,6.53
2019-02-12T21:42:51.093Z,6.71
2019-02-12T21:45:38.621Z,6.76
2019-02-12T21:48:27.377Z,6.81
2019-02-12T21:51:14.901Z,6.84
2019-02-12T21:54:02.235Z,6.76
2019-02-12T21:56:49.443Z,6.81
2019-02-12T21:59:37.377Z,6.70
2019-02-12T22:02:25.109Z,6.74
2019-02-12T22:05:16.836Z,6.78
2019-02-12T22:08:04.256Z,6.72
2019-02-12T22:10:51.475Z,6.71
2019-02-12T22:13:39.053Z,6.74
2019-02-12T22:16:26.734Z,6.87
2019-02-12T22:19:14.261Z,6.74
2019-02-12T22:22:01.990Z,6.77
2019-02-12T22:24:49.619Z,6.72
2019-02-12T22:27:40.383Z,6.78
2019-02-12T22:30:26.925Z,6.57
2019-02-12T22:33:14.351Z,6.43
2019-02-12T22:36:02.051Z,6.25
2019-02-12T22:38:49.406Z,6.45
2019-02-12T22:41:36.827Z,6.19
2019-02-12T22:44:24.358Z,6.43
2019-02-12T22:47:11.984Z,6.15
2019-02-12T22:49:59.409Z,6.30
2019-02-12T22:52:47.039Z,6.33
2019-02-12T22:55:34.976Z,6.23
2019-02-12T22:58:22.301Z,6.27
2019-02-12T23:01:11.869Z,6.39
2019-02-12T23:03:59.600Z,5.71
2019-02-12T23:06:47.330Z,5.58
2019-02-12T23:09:34.650Z,5.68
2019-02-12T23:12:22.895Z,5.93
2019-02-12T23:15:10.523Z,5.80
2019-02-12T23:17:59.074Z,6.12
2019-02-12T23:20:46.906Z,6.21
2019-02-12T23:23:34.843Z,6.05
2019-02-12T23:26:22.368Z,5.98
2019-02-12T23:29:10.099Z,6.23
2019-02-12T23:31:57.523Z,6.36
2019-02-12T23:34:44.540Z,6.37
2019-02-12T23:37:32.107Z,6.44
2019-02-12T23:40:19.386Z,6.44
2019-02-12T23:43:07.016Z,6.59
2019-02-12T23:45:57.289Z,6.64
2019-02-12T23:48:44.833Z,6.60
2019-02-12T23:51:32.566Z,6.62
2019-02-12T23:54:19.887Z,6.60
2019-02-12T23:57:07.618Z,6.65
2019-02-12T23:59:54.942Z,6.47
